sensor_id;sensor_type;location;lat;lon;timestamp;temperature;humidity
21459;DHT22;10891;49.350;19.386;2022-10-10T00:01:11;1.70;99.90
21459;DHT22;10891;49.350;19.386;2022-10-10T00:03:38;1.60;99.90
21459;DHT22;10891;49.350;19.386;2022-10-10T00:06:06;1.60;99.90
21459;DHT22;10891;49.350;19.386;2022-10-10T00:08:33;1.60;99.90
21459;DHT22;10891;49.350;19.386;2022-10-10T00:11:01;1.50;99.90
21459;DHT22;10891;49.350;19.386;2022-10-10T00:13:28;1.50;99.90
21459;DHT22;10891;49.350;19.386;2022-10-10T00:15:54;1.50;99.90
21459;DHT22;10891;49.350;19.386;2022-10-10T00:18:23;1.50;99.90
21459;DHT22;10891;49.350;19.386;2022-10-10T00:20:50;1.50;99.90
21459;DHT22;10891;49.350;19.386;2022-10-10T00:23:17;1.40;99.90
21459;DHT22;10891;49.350;19.386;2022-10-10T00:25:44;1.40;99.90
21459;DHT22;10891;49.350;19.386;2022-10-10T00:28:11;1.40;99.90
21459;DHT22;10891;49.350;19.386;2022-10-10T00:30:38;1.40;99.90
21459;DHT22;10891;49.350;19.386;2022-10-10T00:33:05;1.40;99.90
21459;DHT22;10891;49.350;19.386;2022-10-10T00:35:33;1.40;99.90
21459;DHT22;10891;49.350;19.386;2022-10-10T00:38:00;1.40;99.90
21459;DHT22;10891;49.350;19.386;2022-10-10T00:40:27;1.40;99.90
21459;DHT22;10891;49.350;19.386;2022-10-10T00:42:54;1.30;99.90
21459;DHT22;10891;49.350;19.386;2022-10-10T00:45:26;1.30;99.90
21459;DHT22;10891;49.350;19.386;2022-10-10T00:47:58;1.20;99.90
21459;DHT22;10891;49.350;19.386;2022-10-10T00:50:27;1.30;99.90
21459;DHT22;10891;49.350;19.386;2022-10-10T00:52:57;1.30;99.90
21459;DHT22;10891;49.350;19.386;2022-10-10T00:55:25;1.30;99.90
21459;DHT22;10891;49.350;19.386;2022-10-10T00:57:52;1.30;99.90
21459;DHT22;10891;49.350;19.386;2022-10-10T01:00:19;1.30;99.90
21459;DHT22;10891;49.350;19.386;2022-10-10T01:02:46;1.30;99.90
21459;DHT22;10891;49.350;19.386;2022-10-10T01:05:12;1.30;99.90
21459;DHT22;10891;49.350;19.386;2022-10-10T01:07:40;1.30;99.90
21459;DHT22;10891;49.350;19.386;2022-10-10T01:10:11;1.30;99.90
21459;DHT22;10891;49.350;19.386;2022-10-10T01:12:48;1.30;99.90
21459;DHT22;10891;49.350;19.386;2022-10-10T01:15:23;1.30;99.90
21459;DHT22;10891;49.350;19.386;2022-10-10T01:17:58;1.30;99.90
21459;DHT22;10891;49.350;19.386;2022-10-10T01:20:51;1.20;99.90
21459;DHT22;10891;49.350;19.386;2022-10-10T01:23:46;1.20;99.90
21459;DHT22;10891;49.350;19.386;2022-10-10T01:26:36;1.20;99.90
21459;DHT22;10891;49.350;19.386;2022-10-10T01:29:10;1.10;99.90
21459;DHT22;10891;49.350;19.386;2022-10-10T01:31:41;1.00;99.90
21459;DHT22;10891;49.350;19.386;2022-10-10T01:34:18;1.00;99.90
21459;DHT22;10891;49.350;19.386;2022-10-10T01:36:52;1.00;99.90
21459;DHT22;10891;49.350;19.386;2022-10-10T01:39:25;0.90;99.90
21459;DHT22;10891;49.350;19.386;2022-10-10T01:41:58;0.90;99.90
21459;DHT22;10891;49.350;19.386;2022-10-10T01:44:27;0.90;99.90
21459;DHT22;10891;49.350;19.386;2022-10-10T01:46:54;0.80;99.90
21459;DHT22;10891;49.350;19.386;2022-10-10T01:49:24;0.80;99.90
21459;DHT22;10891;49.350;19.386;2022-10-10T01:52:03;0.80;99.90
21459;DHT22;10891;49.350;19.386;2022-10-10T01:54:40;0.80;99.90
21459;DHT22;10891;49.350;19.386;2022-10-10T01:57:17;0.80;99.90
21459;DHT22;10891;49.350;19.386;2022-10-10T02:00:03;0.80;99.90
21459;DHT22;10891;49.350;19.386;2022-10-10T02:02:38;0.90;99.90
21459;DHT22;10891;49.350;19.386;2022-10-10T02:05:14;0.90;99.90
21459;DHT22;10891;49.350;19.386;2022-10-10T02:07:47;0.90;99.90
21459;DHT22;10891;49.350;19.386;2022-10-10T02:10:20;0.90;99.90
21459;DHT22;10891;49.350;19.386;2022-10-10T02:12:48;0.90;99.90
21459;DHT22;10891;49.350;19.386;2022-10-10T02:15:20;1.00;99.90
21459;DHT22;10891;49.350;19.386;2022-10-10T02:17:48;0.90;99.90
21459;DHT22;10891;49.350;19.386;2022-10-10T02:20:19;0.90;99.90
21459;DHT22;10891;49.350;19.386;2022-10-10T02:22:47;0.90;99.90
21459;DHT22;10891;49.350;19.386;2022-10-10T02:25:15;0.90;99.90
21459;DHT22;10891;49.350;19.386;2022-10-10T02:27:47;0.80;99.90
21459;DHT22;10891;49.350;19.386;2022-10-10T02:30:18;0.90;99.90
21459;DHT22;10891;49.350;19.386;2022-10-10T02:32:47;0.80;99.90
21459;DHT22;10891;49.350;19.386;2022-10-10T02:35:18;0.80;99.90
21459;DHT22;10891;49.350;19.386;2022-10-10T02:37:46;0.80;99.90
21459;DHT22;10891;49.350;19.386;2022-10-10T02:40:16;0.80;99.90
21459;DHT22;10891;49.350;19.386;2022-10-10T02:42:44;0.80;99.90
21459;DHT22;10891;49.350;19.386;2022-10-10T02:45:13;0.80;99.90
21459;DHT22;10891;49.350;19.386;2022-10-10T02:47:41;0.80;99.90
21459;DHT22;10891;49.350;19.386;2022-10-10T02:50:09;0.70;99.90
21459;DHT22;10891;49.350;19.386;2022-10-10T02:52:36;0.80;99.90
21459;DHT22;10891;49.350;19.386;2022-10-10T02:55:04;0.80;99.90
21459;DHT22;10891;49.350;19.386;2022-10-10T02:57:31;0.80;99.90
21459;DHT22;10891;49.350;19.386;2022-10-10T02:59:58;0.80;99.90
21459;DHT22;10891;49.350;19.386;2022-10-10T03:02:25;0.80;99.90
21459;DHT22;10891;49.350;19.386;2022-10-10T03:04:53;0.80;99.90
21459;DHT22;10891;49.350;19.386;2022-10-10T03:07:20;0.70;99.90
21459;DHT22;10891;49.350;19.386;2022-10-10T03:09:47;0.70;99.90
21459;DHT22;10891;49.350;19.386;2022-10-10T03:12:14;0.70;99.90
21459;DHT22;10891;49.350;19.386;2022-10-10T03:14:40;0.60;99.90
21459;DHT22;10891;49.350;19.386;2022-10-10T03:17:07;0.60;99.90
21459;DHT22;10891;49.350;19.386;2022-10-10T03:19:34;0.60;99.90
21459;DHT22;10891;49.350;19.386;2022-10-10T03:22:02;0.70;99.90
21459;DHT22;10891;49.350;19.386;2022-10-10T03:24:29;0.70;99.90
21459;DHT22;10891;49.350;19.386;2022-10-10T03:26:56;0.70;99.90
21459;DHT22;10891;49.350;19.386;2022-10-10T03:29:23;0.80;99.90
21459;DHT22;10891;49.350;19.386;2022-10-10T03:31:50;0.90;99.90
21459;DHT22;10891;49.350;19.386;2022-10-10T03:34:17;0.90;99.90
21459;DHT22;10891;49.350;19.386;2022-10-10T03:36:44;1.00;99.90
21459;DHT22;10891;49.350;19.386;2022-10-10T03:39:12;1.10;99.90
21459;DHT22;10891;49.350;19.386;2022-10-10T03:41:39;1.20;99.90
21459;DHT22;10891;49.350;19.386;2022-10-10T03:44:05;1.30;99.90
21459;DHT22;10891;49.350;19.386;2022-10-10T03:46:32;1.30;99.90
21459;DHT22;10891;49.350;19.386;2022-10-10T03:48:59;1.30;99.90
21459;DHT22;10891;49.350;19.386;2022-10-10T03:51:26;1.30;99.90
21459;DHT22;10891;49.350;19.386;2022-10-10T03:53:53;1.40;99.90
21459;DHT22;10891;49.350;19.386;2022-10-10T03:56:21;1.50;99.90
21459;DHT22;10891;49.350;19.386;2022-10-10T03:58:48;1.60;99.90
21459;DHT22;10891;49.350;19.386;2022-10-10T04:01:15;1.60;99.90
21459;DHT22;10891;49.350;19.386;2022-10-10T04:03:42;1.60;99.90
21459;DHT22;10891;49.350;19.386;2022-10-10T04:06:09;1.60;99.90
21459;DHT22;10891;49.350;19.386;2022-10-10T04:08:35;1.70;99.90
21459;DHT22;10891;49.350;19.386;2022-10-10T04:11:02;1.70;99.90
21459;DHT22;10891;49.350;19.386;2022-10-10T04:13:30;1.60;99.90
21459;DHT22;10891;49.350;19.386;2022-10-10T04:15:57;1.60;99.90
21459;DHT22;10891;49.350;19.386;2022-10-10T04:18:24;1.50;99.90
21459;DHT22;10891;49.350;19.386;2022-10-10T04:20:51;1.60;99.90
21459;DHT22;10891;49.350;19.386;2022-10-10T04:23:18;1.60;99.90
21459;DHT22;10891;49.350;19.386;2022-10-10T04:25:45;1.60;99.90
21459;DHT22;10891;49.350;19.386;2022-10-10T04:28:13;1.60;99.90
21459;DHT22;10891;49.350;19.386;2022-10-10T04:30:42;1.60;99.90
21459;DHT22;10891;49.350;19.386;2022-10-10T04:33:09;1.60;99.90
21459;DHT22;10891;49.350;19.386;2022-10-10T04:35:36;1.60;99.90
21459;DHT22;10891;49.350;19.386;2022-10-10T04:38:03;1.70;99.90
21459;DHT22;10891;49.350;19.386;2022-10-10T04:40:30;1.70;99.90
21459;DHT22;10891;49.350;19.386;2022-10-10T04:42:57;1.80;99.90
21459;DHT22;10891;49.350;19.386;2022-10-10T04:45:24;1.80;99.90
21459;DHT22;10891;49.350;19.386;2022-10-10T04:47:53;1.70;99.90
21459;DHT22;10891;49.350;19.386;2022-10-10T04:50:21;1.70;99.90
21459;DHT22;10891;49.350;19.386;2022-10-10T04:52:48;1.70;99.90
21459;DHT22;10891;49.350;19.386;2022-10-10T04:55:15;1.70;99.90
21459;DHT22;10891;49.350;19.386;2022-10-10T04:57:42;1.60;99.90
21459;DHT22;10891;49.350;19.386;2022-10-10T05:00:10;1.50;99.90
21459;DHT22;10891;49.350;19.386;2022-10-10T05:02:37;1.50;99.90
21459;DHT22;10891;49.350;19.386;2022-10-10T05:05:06;1.50;99.90
21459;DHT22;10891;49.350;19.386;2022-10-10T05:07:33;1.50;99.90
21459;DHT22;10891;49.350;19.386;2022-10-10T05:10:00;1.50;99.90
21459;DHT22;10891;49.350;19.386;2022-10-10T05:12:27;1.40;99.90
21459;DHT22;10891;49.350;19.386;2022-10-10T05:14:54;1.20;99.90
21459;DHT22;10891;49.350;19.386;2022-10-10T05:17:21;1.30;99.90
21459;DHT22;10891;49.350;19.386;2022-10-10T05:19:48;1.30;99.90
21459;DHT22;10891;49.350;19.386;2022-10-10T05:22:17;1.50;99.90
21459;DHT22;10891;49.350;19.386;2022-10-10T05:24:44;1.50;99.90
21459;DHT22;10891;49.350;19.386;2022-10-10T05:27:11;1.50;99.90
21459;DHT22;10891;49.350;19.386;2022-10-10T05:29:37;1.40;99.90
21459;DHT22;10891;49.350;19.386;2022-10-10T05:32:04;1.30;99.90
21459;DHT22;10891;49.350;19.386;2022-10-10T05:34:31;1.30;99.90
21459;DHT22;10891;49.350;19.386;2022-10-10T05:36:58;1.30;99.90
21459;DHT22;10891;49.350;19.386;2022-10-10T05:39:26;1.30;99.90
21459;DHT22;10891;49.350;19.386;2022-10-10T05:41:53;1.30;99.90
21459;DHT22;10891;49.350;19.386;2022-10-10T05:44:20;1.50;99.90
21459;DHT22;10891;49.350;19.386;2022-10-10T05:46:46;1.60;99.90
21459;DHT22;10891;49.350;19.386;2022-10-10T05:49:13;1.70;99.90
21459;DHT22;10891;49.350;19.386;2022-10-10T05:51:40;1.70;99.90
21459;DHT22;10891;49.350;19.386;2022-10-10T05:54:07;1.70;99.90
21459;DHT22;10891;49.350;19.386;2022-10-10T05:56:36;1.80;99.90
21459;DHT22;10891;49.350;19.386;2022-10-10T05:59:03;2.00;99.90
21459;DHT22;10891;49.350;19.386;2022-10-10T06:01:30;2.10;99.90
21459;DHT22;10891;49.350;19.386;2022-10-10T06:03:57;2.30;99.90
21459;DHT22;10891;49.350;19.386;2022-10-10T06:06:24;2.20;99.90
21459;DHT22;10891;49.350;19.386;2022-10-10T06:08:52;2.30;99.90
21459;DHT22;10891;49.350;19.386;2022-10-10T06:11:19;2.20;99.90
21459;DHT22;10891;49.350;19.386;2022-10-10T06:13:49;2.20;99.90
21459;DHT22;10891;49.350;19.386;2022-10-10T06:16:19;2.10;99.90
21459;DHT22;10891;49.350;19.386;2022-10-10T06:18:46;2.30;99.90
21459;DHT22;10891;49.350;19.386;2022-10-10T06:21:13;2.50;99.90
21459;DHT22;10891;49.350;19.386;2022-10-10T06:23:41;2.50;99.90
21459;DHT22;10891;49.350;19.386;2022-10-10T06:26:08;2.40;99.90
21459;DHT22;10891;49.350;19.386;2022-10-10T06:28:35;2.60;99.90
21459;DHT22;10891;49.350;19.386;2022-10-10T06:31:05;2.70;99.90
21459;DHT22;10891;49.350;19.386;2022-10-10T06:33:33;2.90;99.90
21459;DHT22;10891;49.350;19.386;2022-10-10T06:36:04;3.00;99.90
21459;DHT22;10891;49.350;19.386;2022-10-10T06:38:31;2.90;99.90
21459;DHT22;10891;49.350;19.386;2022-10-10T06:41:00;2.90;99.90
21459;DHT22;10891;49.350;19.386;2022-10-10T06:43:28;2.80;99.90
21459;DHT22;10891;49.350;19.386;2022-10-10T06:45:54;2.70;99.90
21459;DHT22;10891;49.350;19.386;2022-10-10T06:48:23;2.80;99.90
21459;DHT22;10891;49.350;19.386;2022-10-10T06:50:57;2.70;99.90
21459;DHT22;10891;49.350;19.386;2022-10-10T06:53:25;2.80;99.90
21459;DHT22;10891;49.350;19.386;2022-10-10T06:55:53;2.80;99.90
21459;DHT22;10891;49.350;19.386;2022-10-10T06:58:21;3.10;99.90
21459;DHT22;10891;49.350;19.386;2022-10-10T07:00:49;3.20;99.90
21459;DHT22;10891;49.350;19.386;2022-10-10T07:03:16;3.30;99.90
21459;DHT22;10891;49.350;19.386;2022-10-10T07:05:48;3.30;99.90
21459;DHT22;10891;49.350;19.386;2022-10-10T07:08:15;3.20;99.90
21459;DHT22;10891;49.350;19.386;2022-10-10T07:10:42;3.20;99.90
21459;DHT22;10891;49.350;19.386;2022-10-10T07:13:09;3.40;99.90
21459;DHT22;10891;49.350;19.386;2022-10-10T07:15:36;3.70;99.90
21459;DHT22;10891;49.350;19.386;2022-10-10T07:18:03;4.20;99.90
21459;DHT22;10891;49.350;19.386;2022-10-10T07:20:31;4.40;99.90
21459;DHT22;10891;49.350;19.386;2022-10-10T07:22:59;4.80;99.90
21459;DHT22;10891;49.350;19.386;2022-10-10T07:25:27;4.50;99.90
21459;DHT22;10891;49.350;19.386;2022-10-10T07:27:54;4.60;99.90
21459;DHT22;10891;49.350;19.386;2022-10-10T07:30:23;4.60;99.90
21459;DHT22;10891;49.350;19.386;2022-10-10T07:32:51;4.50;99.90
21459;DHT22;10891;49.350;19.386;2022-10-10T07:35:19;4.50;99.90
21459;DHT22;10891;49.350;19.386;2022-10-10T07:37:46;4.60;99.90
21459;DHT22;10891;49.350;19.386;2022-10-10T07:40:15;4.40;99.90
21459;DHT22;10891;49.350;19.386;2022-10-10T07:42:42;4.60;99.90
21459;DHT22;10891;49.350;19.386;2022-10-10T07:45:09;4.70;99.90
21459;DHT22;10891;49.350;19.386;2022-10-10T07:47:37;4.70;99.90
21459;DHT22;10891;49.350;19.386;2022-10-10T07:50:05;4.70;99.90
21459;DHT22;10891;49.350;19.386;2022-10-10T07:52:33;4.90;99.90
21459;DHT22;10891;49.350;19.386;2022-10-10T07:55:00;4.80;99.90
21459;DHT22;10891;49.350;19.386;2022-10-10T07:57:29;4.90;99.90
21459;DHT22;10891;49.350;19.386;2022-10-10T08:00:00;4.80;99.90
21459;DHT22;10891;49.350;19.386;2022-10-10T08:02:27;5.00;99.90
21459;DHT22;10891;49.350;19.386;2022-10-10T08:04:54;5.00;99.90
21459;DHT22;10891;49.350;19.386;2022-10-10T08:07:21;5.00;99.90
21459;DHT22;10891;49.350;19.386;2022-10-10T08:09:48;5.10;99.90
21459;DHT22;10891;49.350;19.386;2022-10-10T08:12:15;5.10;99.90
21459;DHT22;10891;49.350;19.386;2022-10-10T08:14:43;5.20;99.90
21459;DHT22;10891;49.350;19.386;2022-10-10T08:17:10;5.40;99.90
21459;DHT22;10891;49.350;19.386;2022-10-10T08:19:37;5.60;99.90
21459;DHT22;10891;49.350;19.386;2022-10-10T08:22:04;5.60;99.90
21459;DHT22;10891;49.350;19.386;2022-10-10T08:24:31;5.90;99.90
21459;DHT22;10891;49.350;19.386;2022-10-10T08:26:58;6.00;99.90
21459;DHT22;10891;49.350;19.386;2022-10-10T08:29:25;6.10;99.90
21459;DHT22;10891;49.350;19.386;2022-10-10T08:31:53;6.10;99.90
21459;DHT22;10891;49.350;19.386;2022-10-10T08:34:20;5.90;99.90
21459;DHT22;10891;49.350;19.386;2022-10-10T08:36:47;6.30;99.90
21459;DHT22;10891;49.350;19.386;2022-10-10T08:39:15;6.60;99.90
21459;DHT22;10891;49.350;19.386;2022-10-10T08:41:48;6.80;99.90
21459;DHT22;10891;49.350;19.386;2022-10-10T08:44:20;6.80;99.90
21459;DHT22;10891;49.350;19.386;2022-10-10T08:46:52;7.30;99.90
21459;DHT22;10891;49.350;19.386;2022-10-10T08:49:25;7.30;99.90
21459;DHT22;10891;49.350;19.386;2022-10-10T08:51:58;7.30;99.90
21459;DHT22;10891;49.350;19.386;2022-10-10T08:54:27;7.80;99.90
21459;DHT22;10891;49.350;19.386;2022-10-10T08:56:58;7.40;99.90
21459;DHT22;10891;49.350;19.386;2022-10-10T08:59:28;7.40;99.90
21459;DHT22;10891;49.350;19.386;2022-10-10T09:02:15;7.30;99.90
21459;DHT22;10891;49.350;19.386;2022-10-10T09:04:46;7.20;99.90
21459;DHT22;10891;49.350;19.386;2022-10-10T09:07:19;7.60;99.90
21459;DHT22;10891;49.350;19.386;2022-10-10T09:09:56;7.60;99.90
21459;DHT22;10891;49.350;19.386;2022-10-10T09:12:32;7.70;99.90
21459;DHT22;10891;49.350;19.386;2022-10-10T09:15:11;8.00;99.90
21459;DHT22;10891;49.350;19.386;2022-10-10T09:17:45;8.00;99.90
21459;DHT22;10891;49.350;19.386;2022-10-10T09:20:27;8.10;99.90
21459;DHT22;10891;49.350;19.386;2022-10-10T09:22:59;8.10;99.90
21459;DHT22;10891;49.350;19.386;2022-10-10T09:25:31;8.10;99.90
21459;DHT22;10891;49.350;19.386;2022-10-10T09:28:04;8.40;99.90
21459;DHT22;10891;49.350;19.386;2022-10-10T09:30:35;8.60;99.90
21459;DHT22;10891;49.350;19.386;2022-10-10T09:33:07;8.80;99.90
21459;DHT22;10891;49.350;19.386;2022-10-10T09:35:37;8.60;99.90
21459;DHT22;10891;49.350;19.386;2022-10-10T09:38:18;8.70;99.90
21459;DHT22;10891;49.350;19.386;2022-10-10T09:40:52;8.70;99.90
21459;DHT22;10891;49.350;19.386;2022-10-10T09:43:20;8.90;99.90
21459;DHT22;10891;49.350;19.386;2022-10-10T09:45:51;9.20;99.90
21459;DHT22;10891;49.350;19.386;2022-10-10T09:48:22;9.20;99.90
21459;DHT22;10891;49.350;19.386;2022-10-10T09:50:51;9.30;99.90
21459;DHT22;10891;49.350;19.386;2022-10-10T09:53:18;9.30;99.90
21459;DHT22;10891;49.350;19.386;2022-10-10T09:55:46;9.50;99.90
21459;DHT22;10891;49.350;19.386;2022-10-10T09:58:21;9.60;99.90
21459;DHT22;10891;49.350;19.386;2022-10-10T10:00:51;9.60;99.90
21459;DHT22;10891;49.350;19.386;2022-10-10T10:03:21;10.00;99.90
21459;DHT22;10891;49.350;19.386;2022-10-10T10:05:56;10.30;99.90
21459;DHT22;10891;49.350;19.386;2022-10-10T10:08:27;10.60;99.90
21459;DHT22;10891;49.350;19.386;2022-10-10T10:10:55;10.80;99.90
21459;DHT22;10891;49.350;19.386;2022-10-10T10:13:28;10.80;99.90
21459;DHT22;10891;49.350;19.386;2022-10-10T10:16:00;11.00;99.90
21459;DHT22;10891;49.350;19.386;2022-10-10T10:18:30;11.40;99.90
21459;DHT22;10891;49.350;19.386;2022-10-10T10:21:15;11.70;99.90
21459;DHT22;10891;49.350;19.386;2022-10-10T10:23:49;12.30;99.90
21459;DHT22;10891;49.350;19.386;2022-10-10T10:26:19;13.00;99.90
21459;DHT22;10891;49.350;19.386;2022-10-10T10:28:47;13.60;99.90
21459;DHT22;10891;49.350;19.386;2022-10-10T10:31:19;13.90;99.90
21459;DHT22;10891;49.350;19.386;2022-10-10T10:33:58;14.30;99.90
21459;DHT22;10891;49.350;19.386;2022-10-10T10:36:31;14.50;99.90
21459;DHT22;10891;49.350;19.386;2022-10-10T10:39:06;14.70;99.90
21459;DHT22;10891;49.350;19.386;2022-10-10T10:41:41;14.80;99.90
21459;DHT22;10891;49.350;19.386;2022-10-10T10:44:26;14.90;99.90
21459;DHT22;10891;49.350;19.386;2022-10-10T10:47:04;15.10;99.90
21459;DHT22;10891;49.350;19.386;2022-10-10T10:49:40;15.20;99.90
21459;DHT22;10891;49.350;19.386;2022-10-10T10:52:38;15.50;99.90
21459;DHT22;10891;49.350;19.386;2022-10-10T10:55:15;15.60;99.90
21459;DHT22;10891;49.350;19.386;2022-10-10T10:57:58;15.70;99.90
21459;DHT22;10891;49.350;19.386;2022-10-10T11:00:27;15.70;99.50
21459;DHT22;10891;49.350;19.386;2022-10-10T11:03:09;15.70;99.40
21459;DHT22;10891;49.350;19.386;2022-10-10T11:05:49;15.70;99.90
21459;DHT22;10891;49.350;19.386;2022-10-10T11:08:31;15.80;99.30
21459;DHT22;10891;49.350;19.386;2022-10-10T11:11:15;15.90;99.30
21459;DHT22;10891;49.350;19.386;2022-10-10T11:13:50;16.00;99.30
21459;DHT22;10891;49.350;19.386;2022-10-10T11:16:24;16.00;98.60
21459;DHT22;10891;49.350;19.386;2022-10-10T11:19:03;16.00;98.90
21459;DHT22;10891;49.350;19.386;2022-10-10T11:21:37;16.00;98.40
21459;DHT22;10891;49.350;19.386;2022-10-10T11:24:10;16.10;98.70
21459;DHT22;10891;49.350;19.386;2022-10-10T11:26:43;16.20;98.80
21459;DHT22;10891;49.350;19.386;2022-10-10T11:29:15;16.40;99.60
21459;DHT22;10891;49.350;19.386;2022-10-10T11:31:47;16.50;98.70
21459;DHT22;10891;49.350;19.386;2022-10-10T11:34:21;16.50;98.70
21459;DHT22;10891;49.350;19.386;2022-10-10T11:36:55;16.60;98.70
21459;DHT22;10891;49.350;19.386;2022-10-10T11:39:25;16.70;98.40
21459;DHT22;10891;49.350;19.386;2022-10-10T11:41:58;16.70;98.20
21459;DHT22;10891;49.350;19.386;2022-10-10T11:44:29;16.70;97.70
21459;DHT22;10891;49.350;19.386;2022-10-10T11:47:01;16.70;97.90
21459;DHT22;10891;49.350;19.386;2022-10-10T11:49:37;16.80;97.50
21459;DHT22;10891;49.350;19.386;2022-10-10T11:52:18;16.80;97.50
21459;DHT22;10891;49.350;19.386;2022-10-10T11:54:52;16.80;97.20
21459;DHT22;10891;49.350;19.386;2022-10-10T11:57:26;16.80;97.10
21459;DHT22;10891;49.350;19.386;2022-10-10T11:59:58;16.80;97.30
21459;DHT22;10891;49.350;19.386;2022-10-10T12:02:31;16.90;97.30
21459;DHT22;10891;49.350;19.386;2022-10-10T12:04:58;16.90;97.20
21459;DHT22;10891;49.350;19.386;2022-10-10T12:07:30;16.90;97.10
21459;DHT22;10891;49.350;19.386;2022-10-10T12:10:01;17.10;97.40
21459;DHT22;10891;49.350;19.386;2022-10-10T12:12:33;17.20;96.80
21459;DHT22;10891;49.350;19.386;2022-10-10T12:15:04;17.20;97.10
21459;DHT22;10891;49.350;19.386;2022-10-10T12:17:41;17.20;97.10
21459;DHT22;10891;49.350;19.386;2022-10-10T12:20:10;17.30;96.70
21459;DHT22;10891;49.350;19.386;2022-10-10T12:23:17;17.20;96.70
21459;DHT22;10891;49.350;19.386;2022-10-10T12:25:46;17.30;97.00
21459;DHT22;10891;49.350;19.386;2022-10-10T12:28:25;17.40;96.70
21459;DHT22;10891;49.350;19.386;2022-10-10T12:31:26;17.40;96.60
21459;DHT22;10891;49.350;19.386;2022-10-10T12:34:03;17.40;96.40
21459;DHT22;10891;49.350;19.386;2022-10-10T12:39:37;17.50;97.10
21459;DHT22;10891;49.350;19.386;2022-10-10T12:42:26;17.50;96.60
21459;DHT22;10891;49.350;19.386;2022-10-10T12:44:53;17.60;96.50
21459;DHT22;10891;49.350;19.386;2022-10-10T12:47:40;17.60;96.60
21459;DHT22;10891;49.350;19.386;2022-10-10T12:50:20;17.60;97.00
21459;DHT22;10891;49.350;19.386;2022-10-10T12:52:51;17.60;97.10
21459;DHT22;10891;49.350;19.386;2022-10-10T12:55:21;17.60;97.10
21459;DHT22;10891;49.350;19.386;2022-10-10T12:57:50;17.70;97.20
21459;DHT22;10891;49.350;19.386;2022-10-10T13:00:20;17.70;97.00
21459;DHT22;10891;49.350;19.386;2022-10-10T13:02:50;17.60;96.80
21459;DHT22;10891;49.350;19.386;2022-10-10T13:05:20;17.50;96.70
21459;DHT22;10891;49.350;19.386;2022-10-10T13:07:50;17.60;97.20
21459;DHT22;10891;49.350;19.386;2022-10-10T13:10:23;17.60;97.30
21459;DHT22;10891;49.350;19.386;2022-10-10T13:13:00;17.60;96.80
21459;DHT22;10891;49.350;19.386;2022-10-10T13:15:28;17.50;97.20
21459;DHT22;10891;49.350;19.386;2022-10-10T13:17:55;17.50;96.90
21459;DHT22;10891;49.350;19.386;2022-10-10T13:20:29;17.40;96.90
21459;DHT22;10891;49.350;19.386;2022-10-10T13:22:57;17.40;96.80
21459;DHT22;10891;49.350;19.386;2022-10-10T13:25:29;17.50;97.20
21459;DHT22;10891;49.350;19.386;2022-10-10T13:27:56;17.50;97.20
21459;DHT22;10891;49.350;19.386;2022-10-10T13:30:24;17.60;97.10
21459;DHT22;10891;49.350;19.386;2022-10-10T13:32:52;17.50;96.90
21459;DHT22;10891;49.350;19.386;2022-10-10T13:35:21;17.40;97.00
21459;DHT22;10891;49.350;19.386;2022-10-10T13:37:53;17.40;97.10
21459;DHT22;10891;49.350;19.386;2022-10-10T13:40:21;17.60;97.40
21459;DHT22;10891;49.350;19.386;2022-10-10T13:42:50;17.70;97.50
21459;DHT22;10891;49.350;19.386;2022-10-10T13:45:37;17.70;97.00
21459;DHT22;10891;49.350;19.386;2022-10-10T13:48:27;17.60;97.10
21459;DHT22;10891;49.350;19.386;2022-10-10T13:51:06;17.50;97.40
21459;DHT22;10891;49.350;19.386;2022-10-10T13:53:45;17.60;97.50
21459;DHT22;10891;49.350;19.386;2022-10-10T13:56:16;17.60;97.70
21459;DHT22;10891;49.350;19.386;2022-10-10T13:58:49;17.60;97.20
21459;DHT22;10891;49.350;19.386;2022-10-10T14:01:28;17.60;97.50
21459;DHT22;10891;49.350;19.386;2022-10-10T14:04:02;17.50;97.60
21459;DHT22;10891;49.350;19.386;2022-10-10T14:06:30;17.50;97.80
21459;DHT22;10891;49.350;19.386;2022-10-10T14:09:05;17.50;97.70
21459;DHT22;10891;49.350;19.386;2022-10-10T14:11:34;17.50;97.40
21459;DHT22;10891;49.350;19.386;2022-10-10T14:14:05;17.50;97.70
21459;DHT22;10891;49.350;19.386;2022-10-10T14:16:33;17.50;97.90
21459;DHT22;10891;49.350;19.386;2022-10-10T14:19:00;17.60;98.10
21459;DHT22;10891;49.350;19.386;2022-10-10T14:21:27;17.50;98.20
21459;DHT22;10891;49.350;19.386;2022-10-10T14:23:54;17.40;98.40
21459;DHT22;10891;49.350;19.386;2022-10-10T14:26:21;17.40;98.40
21459;DHT22;10891;49.350;19.386;2022-10-10T14:28:48;17.30;98.50
21459;DHT22;10891;49.350;19.386;2022-10-10T14:31:16;17.10;98.30
21459;DHT22;10891;49.350;19.386;2022-10-10T14:33:43;17.00;98.70
21459;DHT22;10891;49.350;19.386;2022-10-10T14:36:11;16.90;98.70
21459;DHT22;10891;49.350;19.386;2022-10-10T14:38:38;16.90;99.10
21459;DHT22;10891;49.350;19.386;2022-10-10T14:41:05;16.70;99.00
21459;DHT22;10891;49.350;19.386;2022-10-10T14:43:32;16.60;99.00
21459;DHT22;10891;49.350;19.386;2022-10-10T14:45:59;16.50;99.40
21459;DHT22;10891;49.350;19.386;2022-10-10T14:48:28;16.40;99.70
21459;DHT22;10891;49.350;19.386;2022-10-10T14:50:55;16.30;99.90
21459;DHT22;10891;49.350;19.386;2022-10-10T14:53:22;16.20;99.70
21459;DHT22;10891;49.350;19.386;2022-10-10T14:55:49;16.00;99.80
21459;DHT22;10891;49.350;19.386;2022-10-10T14:58:18;15.90;99.90
21459;DHT22;10891;49.350;19.386;2022-10-10T15:00:45;15.80;99.90
21459;DHT22;10891;49.350;19.386;2022-10-10T15:03:13;15.60;99.90
21459;DHT22;10891;49.350;19.386;2022-10-10T15:05:41;15.50;99.90
21459;DHT22;10891;49.350;19.386;2022-10-10T15:08:11;15.30;99.90
21459;DHT22;10891;49.350;19.386;2022-10-10T15:10:39;15.10;99.90
21459;DHT22;10891;49.350;19.386;2022-10-10T15:13:06;15.00;99.90
21459;DHT22;10891;49.350;19.386;2022-10-10T15:15:33;14.80;99.90
21459;DHT22;10891;49.350;19.386;2022-10-10T15:18:00;14.60;99.90
21459;DHT22;10891;49.350;19.386;2022-10-10T15:20:27;14.50;99.90
21459;DHT22;10891;49.350;19.386;2022-10-10T15:22:58;14.30;99.90
21459;DHT22;10891;49.350;19.386;2022-10-10T15:25:27;14.10;99.90
21459;DHT22;10891;49.350;19.386;2022-10-10T15:27:54;13.90;99.90
21459;DHT22;10891;49.350;19.386;2022-10-10T15:30:22;13.70;99.90
21459;DHT22;10891;49.350;19.386;2022-10-10T15:32:49;13.50;99.90
21459;DHT22;10891;49.350;19.386;2022-10-10T15:35:18;13.30;99.90
21459;DHT22;10891;49.350;19.386;2022-10-10T15:37:46;13.20;99.90
21459;DHT22;10891;49.350;19.386;2022-10-10T15:40:16;13.00;99.90
21459;DHT22;10891;49.350;19.386;2022-10-10T15:42:44;12.80;99.90
21459;DHT22;10891;49.350;19.386;2022-10-10T15:45:11;12.60;99.90
21459;DHT22;10891;49.350;19.386;2022-10-10T15:47:38;12.40;99.90